sensor_id;sensor_type;location;lat;lon;timestamp;P1;durP1;ratioP1;P2;durP2;ratioP2
23565;SDS011;22140;48.988;8.544;2024-01-06T00:04:20;8.43;;;3.00;;
23565;SDS011;22140;48.988;8.544;2024-01-06T00:09:22;9.10;;;2.97;;
23565;SDS011;22140;48.988;8.544;2024-01-06T00:14:23;9.43;;;2.97;;
23565;SDS011;22140;48.988;8.544;2024-01-06T00:19:25;9.20;;;2.38;;
23565;SDS011;22140;48.988;8.544;2024-01-06T00:24:26;6.75;;;2.22;;
23565;SDS011;22140;48.988;8.544;2024-01-06T00:29:28;11.85;;;3.05;;
23565;SDS011;22140;48.988;8.544;2024-01-06T00:34:30;10.80;;;3.05;;
23565;SDS011;22140;48.988;8.544;2024-01-06T00:39:31;10.17;;;3.30;;
23565;SDS011;22140;48.988;8.544;2024-01-06T00:44:34;12.85;;;3.00;;
23565;SDS011;22140;48.988;8.544;2024-01-06T00:49:35;10.45;;;2.70;;
23565;SDS011;22140;48.988;8.544;2024-01-06T00:54:37;6.37;;;2.30;;
23565;SDS011;22140;48.988;8.544;2024-01-06T00:59:39;6.13;;;1.90;;
23565;SDS011;22140;48.988;8.544;2024-01-06T01:04:40;9.47;;;2.30;;
23565;SDS011;22140;48.988;8.544;2024-01-06T01:09:42;10.93;;;3.00;;
23565;SDS011;22140;48.988;8.544;2024-01-06T01:14:44;7.68;;;2.35;;
23565;SDS011;22140;48.988;8.544;2024-01-06T01:19:45;22.42;;;2.92;;
23565;SDS011;22140;48.988;8.544;2024-01-06T01:24:47;13.77;;;3.47;;
23565;SDS011;22140;48.988;8.544;2024-01-06T01:29:48;13.90;;;3.03;;
23565;SDS011;22140;48.988;8.544;2024-01-06T01:34:53;11.93;;;2.70;;
23565;SDS011;22140;48.988;8.544;2024-01-06T01:39:56;8.98;;;2.15;;
23565;SDS011;22140;48.988;8.544;2024-01-06T01:44:57;10.25;;;2.40;;
23565;SDS011;22140;48.988;8.544;2024-01-06T01:49:58;11.90;;;2.45;;
23565;SDS011;22140;48.988;8.544;2024-01-06T01:55:00;12.33;;;2.73;;
23565;SDS011;22140;48.988;8.544;2024-01-06T02:00:02;8.70;;;2.28;;
23565;SDS011;22140;48.988;8.544;2024-01-06T02:05:04;12.02;;;2.60;;
23565;SDS011;22140;48.988;8.544;2024-01-06T02:10:06;7.18;;;2.05;;
23565;SDS011;22140;48.988;8.544;2024-01-06T02:15:07;10.25;;;1.92;;
23565;SDS011;22140;48.988;8.544;2024-01-06T02:20:09;8.50;;;1.97;;
23565;SDS011;22140;48.988;8.544;2024-01-06T02:25:12;9.35;;;1.92;;
23565;SDS011;22140;48.988;8.544;2024-01-06T02:30:14;8.38;;;2.22;;
23565;SDS011;22140;48.988;8.544;2024-01-06T02:35:16;6.78;;;1.65;;
23565;SDS011;22140;48.988;8.544;2024-01-06T02:40:17;9.10;;;1.88;;
23565;SDS011;22140;48.988;8.544;2024-01-06T02:45:19;9.00;;;1.93;;
23565;SDS011;22140;48.988;8.544;2024-01-06T02:50:20;9.98;;;1.73;;
23565;SDS011;22140;48.988;8.544;2024-01-06T02:55:21;11.18;;;2.00;;
23565;SDS011;22140;48.988;8.544;2024-01-06T03:00:23;6.53;;;1.50;;
23565;SDS011;22140;48.988;8.544;2024-01-06T03:05:24;8.35;;;1.63;;
23565;SDS011;22140;48.988;8.544;2024-01-06T03:10:26;7.43;;;1.53;;
23565;SDS011;22140;48.988;8.544;2024-01-06T03:15:27;6.72;;;1.50;;
23565;SDS011;22140;48.988;8.544;2024-01-06T03:20:28;8.43;;;1.60;;
23565;SDS011;22140;48.988;8.544;2024-01-06T03:25:30;7.22;;;1.70;;
23565;SDS011;22140;48.988;8.544;2024-01-06T03:30:31;9.63;;;2.10;;
23565;SDS011;22140;48.988;8.544;2024-01-06T03:35:33;11.43;;;1.80;;
23565;SDS011;22140;48.988;8.544;2024-01-06T03:40:34;6.65;;;2.03;;
23565;SDS011;22140;48.988;8.544;2024-01-06T03:45:35;7.85;;;1.40;;
23565;SDS011;22140;48.988;8.544;2024-01-06T03:50:37;10.13;;;1.50;;
23565;SDS011;22140;48.988;8.544;2024-01-06T03:55:38;7.57;;;1.52;;
23565;SDS011;22140;48.988;8.544;2024-01-06T04:00:39;6.70;;;1.40;;
23565;SDS011;22140;48.988;8.544;2024-01-06T04:05:41;10.80;;;1.80;;
23565;SDS011;22140;48.988;8.544;2024-01-06T04:10:42;7.40;;;1.60;;
23565;SDS011;22140;48.988;8.544;2024-01-06T04:15:44;8.90;;;2.20;;
23565;SDS011;22140;48.988;8.544;2024-01-06T04:20:46;8.27;;;1.80;;
23565;SDS011;22140;48.988;8.544;2024-01-06T04:25:47;8.23;;;1.90;;
23565;SDS011;22140;48.988;8.544;2024-01-06T04:30:48;8.15;;;1.85;;
23565;SDS011;22140;48.988;8.544;2024-01-06T04:35:50;10.45;;;2.20;;
23565;SDS011;22140;48.988;8.544;2024-01-06T04:40:51;8.77;;;2.00;;
23565;SDS011;22140;48.988;8.544;2024-01-06T04:45:53;9.43;;;2.10;;
23565;SDS011;22140;48.988;8.544;2024-01-06T04:50:54;8.60;;;1.90;;
23565;SDS011;22140;48.988;8.544;2024-01-06T04:55:55;8.90;;;1.60;;
23565;SDS011;22140;48.988;8.544;2024-01-06T05:00:57;7.78;;;1.90;;
23565;SDS011;22140;48.988;8.544;2024-01-06T05:05:58;10.32;;;2.05;;
23565;SDS011;22140;48.988;8.544;2024-01-06T05:11:00;10.95;;;2.13;;
23565;SDS011;22140;48.988;8.544;2024-01-06T05:16:01;7.93;;;1.93;;
23565;SDS011;22140;48.988;8.544;2024-01-06T05:21:03;9.57;;;2.20;;
23565;SDS011;22140;48.988;8.544;2024-01-06T05:26:04;9.93;;;2.28;;
23565;SDS011;22140;48.988;8.544;2024-01-06T05:31:06;7.47;;;2.10;;
23565;SDS011;22140;48.988;8.544;2024-01-06T05:36:07;8.63;;;2.25;;
23565;SDS011;22140;48.988;8.544;2024-01-06T05:41:09;7.77;;;2.33;;
23565;SDS011;22140;48.988;8.544;2024-01-06T05:46:10;6.70;;;1.90;;
23565;SDS011;22140;48.988;8.544;2024-01-06T05:51:12;9.77;;;2.00;;
23565;SDS011;22140;48.988;8.544;2024-01-06T05:56:23;10.25;;;2.88;;
23565;SDS011;22140;48.988;8.544;2024-01-06T06:01:26;7.43;;;1.70;;
23565;SDS011;22140;48.988;8.544;2024-01-06T06:06:27;7.77;;;2.37;;
23565;SDS011;22140;48.988;8.544;2024-01-06T06:11:29;7.47;;;1.50;;
23565;SDS011;22140;48.988;8.544;2024-01-06T06:16:30;9.02;;;2.00;;
23565;SDS011;22140;48.988;8.544;2024-01-06T06:21:31;6.68;;;1.80;;
23565;SDS011;22140;48.988;8.544;2024-01-06T06:26:32;8.43;;;1.80;;
23565;SDS011;22140;48.988;8.544;2024-01-06T06:31:34;6.07;;;1.70;;
23565;SDS011;22140;48.988;8.544;2024-01-06T06:36:36;5.57;;;1.70;;
23565;SDS011;22140;48.988;8.544;2024-01-06T06:41:37;8.77;;;2.00;;
23565;SDS011;22140;48.988;8.544;2024-01-06T06:46:38;9.02;;;1.80;;
23565;SDS011;22140;48.988;8.544;2024-01-06T06:51:40;8.18;;;1.90;;
23565;SDS011;22140;48.988;8.544;2024-01-06T06:56:47;9.93;;;2.00;;
23565;SDS011;22140;48.988;8.544;2024-01-06T07:01:49;8.30;;;2.30;;
23565;SDS011;22140;48.988;8.544;2024-01-06T07:06:50;8.43;;;2.42;;
23565;SDS011;22140;48.988;8.544;2024-01-06T07:11:51;9.15;;;2.28;;
23565;SDS011;22140;48.988;8.544;2024-01-06T07:16:53;10.52;;;2.88;;
23565;SDS011;22140;48.988;8.544;2024-01-06T07:21:54;9.47;;;2.80;;
23565;SDS011;22140;48.988;8.544;2024-01-06T07:26:56;8.88;;;2.50;;
23565;SDS011;22140;48.988;8.544;2024-01-06T07:31:57;10.63;;;2.63;;
23565;SDS011;22140;48.988;8.544;2024-01-06T07:36:59;7.63;;;2.47;;
23565;SDS011;22140;48.988;8.544;2024-01-06T07:42:01;9.85;;;2.90;;
23565;SDS011;22140;48.988;8.544;2024-01-06T07:47:04;8.23;;;2.60;;
23565;SDS011;22140;48.988;8.544;2024-01-06T07:52:06;9.70;;;2.97;;
23565;SDS011;22140;48.988;8.544;2024-01-06T07:57:07;8.95;;;2.90;;
23565;SDS011;22140;48.988;8.544;2024-01-06T08:02:09;7.53;;;2.80;;
23565;SDS011;22140;48.988;8.544;2024-01-06T08:07:10;8.13;;;2.70;;
23565;SDS011;22140;48.988;8.544;2024-01-06T08:12:12;7.83;;;3.80;;
23565;SDS011;22140;48.988;8.544;2024-01-06T08:17:13;7.70;;;2.85;;
23565;SDS011;22140;48.988;8.544;2024-01-06T08:22:19;10.88;;;3.00;;
23565;SDS011;22140;48.988;8.544;2024-01-06T08:27:20;11.13;;;2.88;;
23565;SDS011;22140;48.988;8.544;2024-01-06T08:32:22;9.98;;;3.13;;
23565;SDS011;22140;48.988;8.544;2024-01-06T08:37:24;16.40;;;4.07;;
23565;SDS011;22140;48.988;8.544;2024-01-06T08:42:25;28.35;;;9.32;;
23565;SDS011;22140;48.988;8.544;2024-01-06T08:47:27;9.73;;;3.50;;
23565;SDS011;22140;48.988;8.544;2024-01-06T08:52:30;9.95;;;3.22;;
23565;SDS011;22140;48.988;8.544;2024-01-06T08:57:31;9.70;;;2.85;;
23565;SDS011;22140;48.988;8.544;2024-01-06T09:02:33;10.30;;;3.03;;
23565;SDS011;22140;48.988;8.544;2024-01-06T09:07:34;9.90;;;3.20;;
23565;SDS011;22140;48.988;8.544;2024-01-06T09:12:35;8.77;;;3.08;;
23565;SDS011;22140;48.988;8.544;2024-01-06T09:17:37;10.02;;;3.50;;
23565;SDS011;22140;48.988;8.544;2024-01-06T09:22:38;9.85;;;3.35;;
23565;SDS011;22140;48.988;8.544;2024-01-06T09:27:40;8.63;;;3.27;;
23565;SDS011;22140;48.988;8.544;2024-01-06T09:32:41;8.60;;;3.28;;
23565;SDS011;22140;48.988;8.544;2024-01-06T09:37:43;9.30;;;3.47;;
23565;SDS011;22140;48.988;8.544;2024-01-06T09:42:44;16.05;;;5.07;;
23565;SDS011;22140;48.988;8.544;2024-01-06T09:47:50;10.30;;;3.90;;
23565;SDS011;22140;48.988;8.544;2024-01-06T09:52:51;15.03;;;4.43;;
23565;SDS011;22140;48.988;8.544;2024-01-06T09:57:55;11.88;;;4.18;;
23565;SDS011;22140;48.988;8.544;2024-01-06T10:02:57;9.50;;;3.83;;
23565;SDS011;22140;48.988;8.544;2024-01-06T10:07:59;11.25;;;4.00;;
23565;SDS011;22140;48.988;8.544;2024-01-06T10:13:00;11.10;;;4.10;;
23565;SDS011;22140;48.988;8.544;2024-01-06T10:18:02;13.13;;;4.90;;
23565;SDS011;22140;48.988;8.544;2024-01-06T10:23:05;10.15;;;4.00;;
23565;SDS011;22140;48.988;8.544;2024-01-06T10:28:07;15.45;;;4.57;;
23565;SDS011;22140;48.988;8.544;2024-01-06T10:33:09;9.52;;;3.70;;
23565;SDS011;22140;48.988;8.544;2024-01-06T10:38:11;9.98;;;3.90;;
23565;SDS011;22140;48.988;8.544;2024-01-06T10:43:12;10.83;;;4.37;;
23565;SDS011;22140;48.988;8.544;2024-01-06T10:48:14;12.38;;;5.05;;
23565;SDS011;22140;48.988;8.544;2024-01-06T10:53:17;13.13;;;4.75;;
23565;SDS011;22140;48.988;8.544;2024-01-06T10:58:18;12.38;;;4.75;;
23565;SDS011;22140;48.988;8.544;2024-01-06T11:03:20;11.00;;;4.40;;
23565;SDS011;22140;48.988;8.544;2024-01-06T11:08:22;16.97;;;5.83;;
23565;SDS011;22140;48.988;8.544;2024-01-06T11:13:24;13.05;;;5.43;;
23565;SDS011;22140;48.988;8.544;2024-01-06T11:18:39;10.10;;;4.28;;
23565;SDS011;22140;48.988;8.544;2024-01-06T11:23:42;10.13;;;4.15;;
23565;SDS011;22140;48.988;8.544;2024-01-06T11:28:47;12.30;;;4.35;;
23565;SDS011;22140;48.988;8.544;2024-01-06T11:33:49;10.43;;;4.43;;
23565;SDS011;22140;48.988;8.544;2024-01-06T11:38:52;12.30;;;4.88;;
23565;SDS011;22140;48.988;8.544;2024-01-06T11:43:53;10.85;;;5.05;;
23565;SDS011;22140;48.988;8.544;2024-01-06T11:48:55;17.35;;;8.73;;
23565;SDS011;22140;48.988;8.544;2024-01-06T11:53:57;12.95;;;6.03;;
23565;SDS011;22140;48.988;8.544;2024-01-06T11:58:58;17.93;;;6.90;;
23565;SDS011;22140;48.988;8.544;2024-01-06T12:04:01;10.13;;;3.88;;
23565;SDS011;22140;48.988;8.544;2024-01-06T12:09:06;10.98;;;5.20;;
23565;SDS011;22140;48.988;8.544;2024-01-06T12:14:08;12.55;;;5.32;;
23565;SDS011;22140;48.988;8.544;2024-01-06T12:19:09;10.93;;;5.60;;
23565;SDS011;22140;48.988;8.544;2024-01-06T12:24:17;11.33;;;3.90;;
23565;SDS011;22140;48.988;8.544;2024-01-06T12:29:21;9.25;;;4.07;;
23565;SDS011;22140;48.988;8.544;2024-01-06T12:34:23;10.40;;;4.40;;
23565;SDS011;22140;48.988;8.544;2024-01-06T12:39:29;12.10;;;5.13;;
23565;SDS011;22140;48.988;8.544;2024-01-06T12:44:30;10.95;;;5.20;;
23565;SDS011;22140;48.988;8.544;2024-01-06T12:49:33;11.93;;;4.50;;
23565;SDS011;22140;48.988;8.544;2024-01-06T12:54:39;12.48;;;4.20;;
23565;SDS011;22140;48.988;8.544;2024-01-06T12:59:42;14.45;;;4.65;;
23565;SDS011;22140;48.988;8.544;2024-01-06T13:04:44;53.53;;;17.83;;
23565;SDS011;22140;48.988;8.544;2024-01-06T13:09:45;17.33;;;5.25;;
23565;SDS011;22140;48.988;8.544;2024-01-06T13:14:47;22.23;;;9.47;;
23565;SDS011;22140;48.988;8.544;2024-01-06T13:19:49;12.75;;;4.97;;
23565;SDS011;22140;48.988;8.544;2024-01-06T13:24:50;11.02;;;3.90;;
23565;SDS011;22140;48.988;8.544;2024-01-06T13:29:54;11.43;;;4.88;;
23565;SDS011;22140;48.988;8.544;2024-01-06T13:34:56;11.25;;;5.03;;
23565;SDS011;22140;48.988;8.544;2024-01-06T13:40:03;10.83;;;4.53;;
23565;SDS011;22140;48.988;8.544;2024-01-06T13:45:04;11.15;;;4.95;;
23565;SDS011;22140;48.988;8.544;2024-01-06T13:50:07;11.45;;;5.15;;
23565;SDS011;22140;48.988;8.544;2024-01-06T13:55:09;13.57;;;5.95;;
23565;SDS011;22140;48.988;8.544;2024-01-06T14:00:11;13.98;;;5.60;;
23565;SDS011;22140;48.988;8.544;2024-01-06T14:05:20;13.43;;;5.50;;
23565;SDS011;22140;48.988;8.544;2024-01-06T14:10:21;12.95;;;5.53;;
23565;SDS011;22140;48.988;8.544;2024-01-06T14:15:23;14.10;;;5.18;;
23565;SDS011;22140;48.988;8.544;2024-01-06T14:20:24;11.20;;;5.20;;
23565;SDS011;22140;48.988;8.544;2024-01-06T14:25:25;12.05;;;4.82;;
23565;SDS011;22140;48.988;8.544;2024-01-06T14:30:27;12.40;;;5.37;;
23565;SDS011;22140;48.988;8.544;2024-01-06T14:35:30;13.85;;;5.28;;
23565;SDS011;22140;48.988;8.544;2024-01-06T14:40:31;16.10;;;6.43;;
23565;SDS011;22140;48.988;8.544;2024-01-06T14:45:33;11.88;;;5.50;;
23565;SDS011;22140;48.988;8.544;2024-01-06T14:50:34;14.93;;;5.45;;
23565;SDS011;22140;48.988;8.544;2024-01-06T14:55:36;11.90;;;5.53;;
23565;SDS011;22140;48.988;8.544;2024-01-06T15:00:38;14.13;;;6.30;;
23565;SDS011;22140;48.988;8.544;2024-01-06T15:05:40;17.83;;;7.90;;
23565;SDS011;22140;48.988;8.544;2024-01-06T15:10:42;14.23;;;5.53;;
23565;SDS011;22140;48.988;8.544;2024-01-06T15:15:43;18.48;;;6.70;;
23565;SDS011;22140;48.988;8.544;2024-01-06T15:20:46;19.17;;;7.50;;
23565;SDS011;22140;48.988;8.544;2024-01-06T15:25:48;16.10;;;6.82;;
23565;SDS011;22140;48.988;8.544;2024-01-06T15:30:49;18.05;;;7.22;;
23565;SDS011;22140;48.988;8.544;2024-01-06T15:35:51;15.45;;;6.38;;
23565;SDS011;22140;48.988;8.544;2024-01-06T15:40:54;12.35;;;5.57;;
23565;SDS011;22140;48.988;8.544;2024-01-06T15:45:56;14.67;;;6.17;;
23565;SDS011;22140;48.988;8.544;2024-01-06T15:50:57;16.75;;;7.10;;
23565;SDS011;22140;48.988;8.544;2024-01-06T15:55:59;16.30;;;7.07;;
23565;SDS011;22140;48.988;8.544;2024-01-06T16:01:01;15.52;;;7.10;;
23565;SDS011;22140;48.988;8.544;2024-01-06T16:06:03;15.10;;;7.00;;
23565;SDS011;22140;48.988;8.544;2024-01-06T16:11:04;22.13;;;8.27;;
23565;SDS011;22140;48.988;8.544;2024-01-06T16:16:06;16.50;;;6.97;;
23565;SDS011;22140;48.988;8.544;2024-01-06T16:21:07;19.15;;;7.25;;
23565;SDS011;22140;48.988;8.544;2024-01-06T16:26:09;22.27;;;9.33;;
23565;SDS011;22140;48.988;8.544;2024-01-06T16:31:10;21.70;;;8.93;;
23565;SDS011;22140;48.988;8.544;2024-01-06T16:36:12;17.07;;;8.10;;
23565;SDS011;22140;48.988;8.544;2024-01-06T16:41:13;18.92;;;8.25;;
23565;SDS011;22140;48.988;8.544;2024-01-06T16:46:14;18.48;;;8.50;;
23565;SDS011;22140;48.988;8.544;2024-01-06T16:51:16;17.60;;;8.18;;
23565;SDS011;22140;48.988;8.544;2024-01-06T16:56:18;14.95;;;7.57;;
23565;SDS011;22140;48.988;8.544;2024-01-06T17:01:19;14.37;;;6.73;;
23565;SDS011;22140;48.988;8.544;2024-01-06T17:06:21;17.05;;;7.50;;
23565;SDS011;22140;48.988;8.544;2024-01-06T17:11:22;17.98;;;6.55;;
23565;SDS011;22140;48.988;8.544;2024-01-06T17:16:23;14.15;;;6.82;;
23565;SDS011;22140;48.988;8.544;2024-01-06T17:21:25;15.30;;;7.47;;
23565;SDS011;22140;48.988;8.544;2024-01-06T17:26:26;13.57;;;6.53;;
23565;SDS011;22140;48.988;8.544;2024-01-06T17:31:27;14.45;;;6.18;;
23565;SDS011;22140;48.988;8.544;2024-01-06T17:36:29;49.30;;;14.40;;
23565;SDS011;22140;48.988;8.544;2024-01-06T17:41:30;34.00;;;12.50;;
23565;SDS011;22140;48.988;8.544;2024-01-06T17:46:40;25.08;;;10.63;;
23565;SDS011;22140;48.988;8.544;2024-01-06T17:51:41;27.73;;;12.23;;
23565;SDS011;22140;48.988;8.544;2024-01-06T17:56:43;24.40;;;10.68;;
23565;SDS011;22140;48.988;8.544;2024-01-06T18:01:45;21.33;;;8.55;;
23565;SDS011;22140;48.988;8.544;2024-01-06T18:06:47;17.73;;;8.40;;
23565;SDS011;22140;48.988;8.544;2024-01-06T18:11:48;17.42;;;8.07;;
23565;SDS011;22140;48.988;8.544;2024-01-06T18:16:49;20.13;;;9.30;;
23565;SDS011;22140;48.988;8.544;2024-01-06T18:21:51;22.25;;;10.13;;
23565;SDS011;22140;48.988;8.544;2024-01-06T18:26:53;18.70;;;8.38;;
23565;SDS011;22140;48.988;8.544;2024-01-06T18:31:55;21.00;;;9.00;;
23565;SDS011;22140;48.988;8.544;2024-01-06T18:36:56;18.42;;;8.32;;
23565;SDS011;22140;48.988;8.544;2024-01-06T18:41:57;19.30;;;8.80;;
23565;SDS011;22140;48.988;8.544;2024-01-06T18:46:59;16.67;;;8.32;;
23565;SDS011;22140;48.988;8.544;2024-01-06T18:52:00;20.48;;;9.73;;
23565;SDS011;22140;48.988;8.544;2024-01-06T18:57:05;22.23;;;10.30;;
23565;SDS011;22140;48.988;8.544;2024-01-06T19:02:07;34.38;;;15.07;;
23565;SDS011;22140;48.988;8.544;2024-01-06T19:07:08;20.87;;;10.47;;
23565;SDS011;22140;48.988;8.544;2024-01-06T19:12:10;19.13;;;9.75;;
23565;SDS011;22140;48.988;8.544;2024-01-06T19:17:12;28.13;;;11.98;;
23565;SDS011;22140;48.988;8.544;2024-01-06T19:22:13;42.38;;;17.13;;
23565;SDS011;22140;48.988;8.544;2024-01-06T19:27:14;22.52;;;10.35;;
23565;SDS011;22140;48.988;8.544;2024-01-06T19:32:16;20.73;;;10.00;;
23565;SDS011;22140;48.988;8.544;2024-01-06T19:37:19;26.90;;;11.77;;
23565;SDS011;22140;48.988;8.544;2024-01-06T19:42:20;23.67;;;10.98;;
23565;SDS011;22140;48.988;8.544;2024-01-06T19:47:21;21.88;;;10.60;;
23565;SDS011;22140;48.988;8.544;2024-01-06T19:52:23;25.20;;;12.00;;
23565;SDS011;22140;48.988;8.544;2024-01-06T19:57:24;21.23;;;10.10;;
23565;SDS011;22140;48.988;8.544;2024-01-06T20:02:26;22.30;;;10.00;;
23565;SDS011;22140;48.988;8.544;2024-01-06T20:07:27;18.48;;;8.40;;
23565;SDS011;22140;48.988;8.544;2024-01-06T20:12:30;23.67;;;9.98;;
23565;SDS011;22140;48.988;8.544;2024-01-06T20:17:31;19.83;;;8.73;;
23565;SDS011;22140;48.988;8.544;2024-01-06T20:22:34;20.70;;;9.87;;
23565;SDS011;22140;48.988;8.544;2024-01-06T20:27:35;15.70;;;7.00;;
23565;SDS011;22140;48.988;8.544;2024-01-06T20:32:37;19.10;;;8.73;;
23565;SDS011;22140;48.988;8.544;2024-01-06T20:37:41;20.05;;;8.90;;
23565;SDS011;22140;48.988;8.544;2024-01-06T20:42:43;21.30;;;9.05;;
23565;SDS011;22140;48.988;8.544;2024-01-06T20:47:44;20.97;;;9.07;;
23565;SDS011;22140;48.988;8.544;2024-01-06T20:52:46;23.40;;;9.48;;
23565;SDS011;22140;48.988;8.544;2024-01-06T20:57:48;16.35;;;7.93;;
23565;SDS011;22140;48.988;8.544;2024-01-06T21:02:50;11.45;;;4.88;;
23565;SDS011;22140;48.988;8.544;2024-01-06T21:07:51;12.60;;;4.95;;
23565;SDS011;22140;48.988;8.544;2024-01-06T21:12:52;13.00;;;5.13;;
23565;SDS011;22140;48.988;8.544;2024-01-06T21:17:54;13.32;;;5.70;;
23565;SDS011;22140;48.988;8.544;2024-01-06T21:22:55;11.48;;;5.18;;
23565;SDS011;22140;48.988;8.544;2024-01-06T21:27:57;12.05;;;5.28;;
23565;SDS011;22140;48.988;8.544;2024-01-06T21:32:59;12.02;;;4.80;;
23565;SDS011;22140;48.988;8.544;2024-01-06T21:38:03;9.80;;;4.13;;
23565;SDS011;22140;48.988;8.544;2024-01-06T21:43:13;11.60;;;4.70;;
23565;SDS011;22140;48.988;8.544;2024-01-06T21:48:14;12.57;;;5.35;;
23565;SDS011;22140;48.988;8.544;2024-01-06T21:53:15;14.95;;;6.00;;
23565;SDS011;22140;48.988;8.544;2024-01-06T21:58:17;15.93;;;6.38;;
23565;SDS011;22140;48.988;8.544;2024-01-06T22:03:18;17.37;;;7.23;;
23565;SDS011;22140;48.988;8.544;2024-01-06T22:08:20;16.30;;;6.97;;
23565;SDS011;22140;48.988;8.544;2024-01-06T22:13:21;16.10;;;7.25;;
23565;SDS011;22140;48.988;8.544;2024-01-06T22:18:23;16.60;;;6.90;;
23565;SDS011;22140;48.988;8.544;2024-01-06T22:23:26;15.40;;;6.78;;
23565;SDS011;22140;48.988;8.544;2024-01-06T22:28:27;15.03;;;6.03;;
23565;SDS011;22140;48.988;8.544;2024-01-06T22:33:29;16.70;;;7.15;;
23565;SDS011;22140;48.988;8.544;2024-01-06T22:38:30;16.70;;;6.90;;
23565;SDS011;22140;48.988;8.544;2024-01-06T22:43:48;16.88;;;7.25;;
23565;SDS011;22140;48.988;8.544;2024-01-06T22:48:50;16.80;;;6.60;;
23565;SDS011;22140;48.988;8.544;2024-01-06T22:53:51;17.20;;;7.30;;
23565;SDS011;22140;48.988;8.544;2024-01-06T22:58:53;16.83;;;7.15;;
23565;SDS011;22140;48.988;8.544;2024-01-06T23:03:54;18.85;;;7.47;;
23565;SDS011;22140;48.988;8.544;2024-01-06T23:08:55;19.48;;;7.75;;
23565;SDS011;22140;48.988;8.544;2024-01-06T23:13:57;21.85;;;8.50;;
23565;SDS011;22140;48.988;8.544;2024-01-06T23:18:58;16.87;;;7.67;;
23565;SDS011;22140;48.988;8.544;2024-01-06T23:24:01;16.00;;;7.30;;
23565;SDS011;22140;48.988;8.544;2024-01-06T23:29:03;19.15;;;6.82;;
23565;SDS011;22140;48.988;8.544;2024-01-06T23:34:05;17.73;;;7.28;;
23565;SDS011;22140;48.988;8.544;2024-01-06T23:39:18;19.50;;;7.20;;
23565;SDS011;22140;48.988;8.544;2024-01-06T23:44:19;14.33;;;6.00;;
23565;SDS011;22140;48.988;8.544;2024-01-06T23:49:21;17.23;;;7.15;;
23565;SDS011;22140;48.988;8.544;2024-01-06T23:54:22;23.52;;;6.82;;
23565;SDS011;22140;48.988;8.544;2024-01-06T23:59:24;15.27;;;5.85;;
